createdAt,value
2016-12-09T00:00:01.430Z,1018.85
2016-12-09T00:01:01.447Z,1018.84
2016-12-09T00:02:01.464Z,1018.86
2016-12-09T00:03:01.484Z,1018.84
2016-12-09T00:04:01.502Z,1018.86
2016-12-09T00:05:01.524Z,1018.85
2016-12-09T00:06:01.541Z,1018.85
2016-12-09T00:07:01.561Z,1018.87
2016-12-09T00:08:01.582Z,1018.78
2016-12-09T00:10:01.618Z,1018.73
2016-12-09T00:11:01.638Z,1018.72
2016-12-09T00:12:01.656Z,1018.73
2016-12-09T00:13:01.678Z,1018.68
2016-12-09T00:14:01.697Z,1018.66
2016-12-09T00:15:01.716Z,1018.59
2016-12-09T00:16:01.736Z,1018.62
2016-12-09T00:17:01.753Z,1018.62
2016-12-09T00:18:01.773Z,1018.6
2016-12-09T00:19:01.793Z,1018.61
2016-12-09T00:20:01.813Z,1018.65
2016-12-09T00:21:01.832Z,1018.59
2016-12-09T00:22:01.852Z,1018.49
2016-12-09T00:23:01.871Z,1018.44
2016-12-09T00:25:01.908Z,1018.44
2016-12-09T00:26:01.928Z,1018.39
2016-12-09T00:27:01.946Z,1018.4
2016-12-09T00:28:01.966Z,1018.41
2016-12-09T00:29:01.986Z,1018.38
2016-12-09T00:30:02.006Z,1018.39
2016-12-09T00:31:02.025Z,1018.4
2016-12-09T00:32:02.045Z,1018.41
2016-12-09T00:33:02.064Z,1018.42
2016-12-09T00:34:02.081Z,1018.37
2016-12-09T00:35:02.100Z,1018.36
2016-12-09T00:36:02.120Z,1018.32
2016-12-09T00:37:02.139Z,1018.31
2016-12-09T00:38:02.158Z,1018.25
2016-12-09T00:39:02.178Z,1018.19
2016-12-09T00:40:02.200Z,1018.19
2016-12-09T00:41:02.216Z,1018.14
2016-12-09T00:42:02.236Z,1018.14
2016-12-09T00:43:02.258Z,1018.08
2016-12-09T00:44:02.274Z,1018.08
2016-12-09T00:45:02.293Z,1018.05
2016-12-09T00:46:02.315Z,1018.07
2016-12-09T00:47:02.332Z,1018.06
2016-12-09T00:48:02.351Z,1018.08
2016-12-09T00:49:02.371Z,1018.07
2016-12-09T00:50:02.390Z,1018.07
2016-12-09T00:51:02.410Z,1018.09
2016-12-09T00:52:02.428Z,1018.1
2016-12-09T00:53:02.450Z,1018.08
2016-12-09T00:54:02.469Z,1018.07
2016-12-09T00:55:02.488Z,1018.09
2016-12-09T00:57:02.525Z,1018.12
2016-12-09T00:58:02.547Z,1018.09
2016-12-09T00:59:02.565Z,1018.07
2016-12-09T01:00:02.583Z,1018.06
2016-12-09T01:01:02.602Z,1018.15
2016-12-09T01:02:02.622Z,1018.1
2016-12-09T01:03:02.640Z,1018.1
2016-12-09T01:04:02.662Z,1018.12
2016-12-09T01:05:02.681Z,1018.19
2016-12-09T01:06:02.700Z,1018.25
2016-12-09T01:07:02.717Z,1018.19
2016-12-09T01:08:02.737Z,1018.28
2016-12-09T01:09:02.757Z,1018.24
2016-12-09T01:10:02.777Z,1018.29
2016-12-09T01:11:02.794Z,1018.27
2016-12-09T01:13:02.836Z,1018.28
2016-12-09T01:14:02.854Z,1018.26
2016-12-09T01:15:02.872Z,1018.32
2016-12-09T01:16:02.891Z,1018.28
2016-12-09T01:17:02.910Z,1018.25
2016-12-09T01:18:02.929Z,1018.2
2016-12-09T01:19:02.951Z,1018.21
2016-12-09T01:20:02.968Z,1018.22
2016-12-09T01:21:02.989Z,1018.27
2016-12-09T01:22:03.006Z,1018.24
2016-12-09T01:23:03.025Z,1018.16
2016-12-09T01:24:03.047Z,1018.23
2016-12-09T01:25:03.066Z,1018.24
2016-12-09T01:26:03.086Z,1018.26
2016-12-09T01:27:03.102Z,1018.25
2016-12-09T01:29:03.142Z,1018.29
2016-12-09T01:30:03.162Z,1018.3
2016-12-09T01:31:03.180Z,1018.29
2016-12-09T01:32:03.200Z,1018.29
2016-12-09T01:33:03.220Z,1018.22
2016-12-09T01:34:03.239Z,1018.22
2016-12-09T01:35:03.256Z,1018.2
2016-12-09T01:36:03.275Z,1018.17
2016-12-09T01:37:03.294Z,1018.25
2016-12-09T01:38:03.316Z,1018.12
2016-12-09T01:39:03.333Z,1018.13
2016-12-09T01:40:03.352Z,1018.12
2016-12-09T01:41:03.372Z,1018.13
2016-12-09T01:42:03.392Z,1018.18
2016-12-09T01:43:03.410Z,1018.17
2016-12-09T01:45:03.451Z,1018.2
2016-12-09T01:46:03.470Z,1018.19
2016-12-09T01:47:03.489Z,1018.2
2016-12-09T01:48:03.508Z,1018.15
2016-12-09T01:49:03.526Z,1018.17
2016-12-09T01:50:03.544Z,1018.17
2016-12-09T01:51:03.566Z,1018.2
2016-12-09T01:52:03.585Z,1018.2
2016-12-09T01:53:03.606Z,1018.24
2016-12-09T01:54:03.623Z,1018.21
2016-12-09T01:55:03.643Z,1018.27
2016-12-09T01:56:03.661Z,1018.3
2016-12-09T01:57:03.681Z,1018.31
2016-12-09T01:58:03.703Z,1018.39
2016-12-09T02:00:03.742Z,1018.41
2016-12-09T02:01:03.760Z,1018.35
2016-12-09T02:02:03.779Z,1018.43
2016-12-09T02:03:03.797Z,1018.44
2016-12-09T02:04:03.819Z,1018.42
2016-12-09T02:05:03.837Z,1018.4
2016-12-09T02:06:03.857Z,1018.4
2016-12-09T02:07:03.875Z,1018.38
2016-12-09T02:08:03.895Z,1018.32
2016-12-09T02:09:03.915Z,1018.33
2016-12-09T02:10:03.934Z,1018.31
2016-12-09T02:11:03.954Z,1018.26
2016-12-09T02:12:03.970Z,1018.28
2016-12-09T02:13:03.992Z,1018.22
2016-12-09T02:14:04.012Z,1018.24
2016-12-09T02:15:04.029Z,1018.27
2016-12-09T02:16:04.048Z,1018.26
2016-12-09T02:17:04.069Z,1018.25
2016-12-09T02:18:04.087Z,1018.21
2016-12-09T02:19:04.106Z,1018.17
2016-12-09T02:20:04.127Z,1018.12
2016-12-09T02:21:04.148Z,1018.1
2016-12-09T02:22:04.166Z,1018.11
2016-12-09T02:23:04.185Z,1018.11
2016-12-09T02:24:04.203Z,1018.13
2016-12-09T02:25:04.224Z,1018.13
2016-12-09T02:26:04.244Z,1018.12
2016-12-09T02:27:04.263Z,1018.12
2016-12-09T02:28:04.282Z,1018.1
2016-12-09T02:29:04.302Z,1018.1
2016-12-09T02:30:04.319Z,1018.04
2016-12-09T02:32:04.360Z,1018.11
2016-12-09T02:33:04.380Z,1018.16
2016-12-09T02:34:04.396Z,1018.2
2016-12-09T02:35:04.416Z,1018.17
2016-12-09T02:36:04.435Z,1018.23
2016-12-09T02:37:04.455Z,1018.2
2016-12-09T02:38:04.473Z,1018.2
2016-12-09T02:39:04.493Z,1018.24
2016-12-09T02:40:04.515Z,1018.2
2016-12-09T02:41:04.532Z,1018.22
2016-12-09T02:42:04.551Z,1018.25
2016-12-09T02:43:04.571Z,1018.25
2016-12-09T02:44:04.590Z,1018.32
2016-12-09T02:45:04.609Z,1018.32
2016-12-09T02:46:04.631Z,1018.36
2016-12-09T02:48:04.668Z,1018.34
2016-12-09T02:49:04.688Z,1018.36
2016-12-09T02:50:04.708Z,1018.35
2016-12-09T02:51:04.726Z,1018.31
2016-12-09T02:52:04.744Z,1018.3
2016-12-09T02:53:04.764Z,1018.36
2016-12-09T02:54:04.786Z,1018.35
2016-12-09T02:55:04.806Z,1018.33
2016-12-09T02:56:04.824Z,1018.35
2016-12-09T02:57:04.842Z,1018.38
2016-12-09T02:58:04.861Z,1018.32
2016-12-09T02:59:04.881Z,1018.33
2016-12-09T03:00:04.900Z,1018.3
2016-12-09T03:01:04.920Z,1018.31
2016-12-09T03:02:04.941Z,1018.32
2016-12-09T03:04:04.980Z,1018.23
2016-12-09T03:05:04.999Z,1018.18
2016-12-09T03:06:05.019Z,1018.23
2016-12-09T03:07:05.037Z,1018.2
2016-12-09T03:08:05.055Z,1018.18
2016-12-09T03:09:05.076Z,1018.19
2016-12-09T03:10:05.095Z,1018.16
2016-12-09T03:11:05.114Z,1018.16
2016-12-09T03:12:05.134Z,1018.2
2016-12-09T03:13:05.155Z,1018.17
2016-12-09T03:14:05.174Z,1018.17
2016-12-09T03:15:05.191Z,1018.12
2016-12-09T03:16:05.213Z,1018.08
2016-12-09T03:17:05.231Z,1018.05
2016-12-09T03:18:05.251Z,1018.05
2016-12-09T03:20:05.289Z,1018.01
2016-12-09T03:21:05.311Z,1018.09
2016-12-09T03:22:05.330Z,1018.13
2016-12-09T03:23:05.347Z,1018.12
2016-12-09T03:24:05.367Z,1018.13
2016-12-09T03:25:05.388Z,1018.04
2016-12-09T03:26:05.406Z,1018.05
2016-12-09T03:27:05.425Z,1017.92
2016-12-09T03:28:05.447Z,1017.95
2016-12-09T03:29:05.464Z,1017.97
2016-12-09T03:30:05.486Z,1018.01
2016-12-09T03:31:05.506Z,1017.95
2016-12-09T03:32:05.525Z,1017.92
2016-12-09T03:33:05.545Z,1017.87
2016-12-09T03:35:05.582Z,1017.99
2016-12-09T03:36:05.603Z,1018.01
2016-12-09T03:37:05.621Z,1017.99
2016-12-09T03:38:05.641Z,1017.99
2016-12-09T03:39:05.663Z,1018.01
2016-12-09T03:40:05.681Z,1018.05
2016-12-09T03:41:05.701Z,1018.13
2016-12-09T03:42:05.719Z,1018.15
2016-12-09T03:43:05.740Z,1018.12
2016-12-09T03:44:05.757Z,1018.18
2016-12-09T03:45:05.779Z,1018.2
2016-12-09T03:46:05.799Z,1018.22
2016-12-09T03:47:05.815Z,1018.18
2016-12-09T03:48:05.835Z,1018.19
2016-12-09T03:49:05.855Z,1018.2
2016-12-09T03:50:05.875Z,1018.2
2016-12-09T03:51:05.894Z,1018.2
2016-12-09T03:52:05.913Z,1018.14
2016-12-09T03:53:05.933Z,1018.13
2016-12-09T03:54:05.957Z,1018.15
2016-12-09T03:55:05.974Z,1018.16
2016-12-09T03:56:05.991Z,1018.16
2016-12-09T03:57:06.014Z,1018.14
2016-12-09T03:58:06.031Z,1018.14
2016-12-09T03:59:06.051Z,1018.21
2016-12-09T04:00:06.069Z,1018.21
2016-12-09T04:01:06.088Z,1018.27
2016-12-09T04:02:06.107Z,1018.33
2016-12-09T04:03:06.129Z,1018.28
2016-12-09T04:04:06.148Z,1018.25
2016-12-09T04:05:06.167Z,1018.21
2016-12-09T04:07:06.206Z,1018.21
2016-12-09T04:08:06.224Z,1018.16
2016-12-09T04:09:06.244Z,1018.13
2016-12-09T04:10:06.262Z,1018.11
2016-12-09T04:11:06.284Z,1018.09
2016-12-09T04:12:06.353Z,1018.11
2016-12-09T04:13:06.320Z,1018.1
2016-12-09T04:14:06.342Z,1018.05
2016-12-09T04:15:06.361Z,1017.96
2016-12-09T04:16:06.380Z,1017.98
2016-12-09T04:17:06.398Z,1018.03
2016-12-09T04:18:06.417Z,1018.09
2016-12-09T04:19:06.439Z,1018.08
2016-12-09T04:20:06.456Z,1018.06
2016-12-09T04:21:06.476Z,1018.04
2016-12-09T04:23:06.517Z,1018.02
2016-12-09T04:24:06.536Z,1018.04
2016-12-09T04:25:06.560Z,1018.12
2016-12-09T04:26:06.573Z,1018.1
2016-12-09T04:27:06.609Z,1018.16
2016-12-09T04:28:06.612Z,1018.29
2016-12-09T04:29:06.634Z,1018.37
2016-12-09T04:30:06.702Z,1018.31
2016-12-09T04:31:06.672Z,1018.35
2016-12-09T04:32:06.692Z,1018.43
2016-12-09T04:33:06.712Z,1018.38
2016-12-09T04:34:06.732Z,1018.41
2016-12-09T04:35:06.748Z,1018.32
2016-12-09T04:36:06.770Z,1018.41
2016-12-09T04:37:06.788Z,1018.35
2016-12-09T04:39:06.827Z,1018.38
2016-12-09T04:40:06.849Z,1018.34
2016-12-09T04:41:06.868Z,1018.31
2016-12-09T04:42:06.884Z,1018.24
2016-12-09T04:43:06.905Z,1018.19
2016-12-09T04:44:06.923Z,1018.14
2016-12-09T04:45:06.945Z,1018.05
2016-12-09T04:46:06.964Z,1018.07
2016-12-09T04:47:06.986Z,1017.95
2016-12-09T04:48:07.003Z,1017.94
2016-12-09T04:49:07.022Z,1017.85
2016-12-09T04:50:07.041Z,1017.84
2016-12-09T04:51:07.059Z,1017.89
2016-12-09T04:52:07.079Z,1017.85
2016-12-09T04:53:07.098Z,1017.86
2016-12-09T04:55:07.139Z,1017.86
2016-12-09T04:56:07.158Z,1017.89
2016-12-09T04:57:07.177Z,1017.89
2016-12-09T04:58:07.197Z,1017.91
2016-12-09T04:59:07.215Z,1017.95
2016-12-09T05:00:07.235Z,1017.94
2016-12-09T05:01:07.253Z,1018.02
2016-12-09T05:02:07.274Z,1018.04
2016-12-09T05:03:07.294Z,1018
2016-12-09T05:04:07.312Z,1018.03
2016-12-09T05:05:07.382Z,1018.07
2016-12-09T05:06:07.452Z,1018.05
2016-12-09T05:07:07.371Z,1018.08
2016-12-09T05:08:07.391Z,1018.1
2016-12-09T05:10:07.428Z,1018.07
2016-12-09T05:11:07.447Z,1018.11
2016-12-09T05:12:07.469Z,1018.17
2016-12-09T05:13:07.488Z,1018.12
2016-12-09T05:14:07.506Z,1018.08
2016-12-09T05:15:07.524Z,1018.09
2016-12-09T05:16:07.546Z,1018.07
2016-12-09T05:17:07.565Z,1018.06
2016-12-09T05:18:07.582Z,1018.08
2016-12-09T05:19:07.604Z,1018.1
2016-12-09T05:20:07.623Z,1018.07
2016-12-09T05:21:07.643Z,1018.07
2016-12-09T05:22:07.661Z,1018.07
2016-12-09T05:23:07.679Z,1018.06
2016-12-09T05:24:07.701Z,1018.08
2016-12-09T05:25:07.720Z,1018.09
2016-12-09T05:26:07.737Z,1018.1
2016-12-09T05:27:07.757Z,1018.09
2016-12-09T05:28:07.778Z,1018.05
2016-12-09T05:29:07.797Z,1018.07
2016-12-09T05:30:07.817Z,1018.05
2016-12-09T05:31:07.836Z,1018.03
2016-12-09T05:32:07.856Z,1018.01
2016-12-09T05:33:07.875Z,1017.95
2016-12-09T05:34:07.892Z,1017.92
2016-12-09T05:35:07.912Z,1017.96
2016-12-09T05:36:07.932Z,1017.95
2016-12-09T05:37:07.952Z,1017.93
2016-12-09T05:38:07.970Z,1017.94
2016-12-09T05:39:07.993Z,1017.95
2016-12-09T05:40:08.011Z,1017.95
2016-12-09T05:42:08.047Z,1017.91
2016-12-09T05:43:08.069Z,1017.92
2016-12-09T05:44:08.086Z,1017.93
2016-12-09T05:45:08.105Z,1018
2016-12-09T05:46:08.128Z,1017.92
2016-12-09T05:47:08.147Z,1017.95
2016-12-09T05:48:08.166Z,1017.92
2016-12-09T05:49:08.183Z,1017.88
2016-12-09T05:50:08.202Z,1017.91
2016-12-09T05:51:08.223Z,1017.84
2016-12-09T05:52:08.241Z,1017.82
2016-12-09T05:53:08.262Z,1017.85
2016-12-09T05:54:08.280Z,1017.83
2016-12-09T05:55:08.300Z,1017.8
2016-12-09T05:56:08.321Z,1017.78
2016-12-09T05:58:08.357Z,1017.74
2016-12-09T05:59:08.378Z,1017.75
2016-12-09T06:00:08.397Z,1017.73
2016-12-09T06:01:08.414Z,1017.7
2016-12-09T06:02:08.435Z,1017.68
2016-12-09T06:03:08.452Z,1017.64
2016-12-09T06:04:08.474Z,1017.66
2016-12-09T06:05:08.493Z,1017.64
2016-12-09T06:06:08.510Z,1017.69
2016-12-09T06:07:08.531Z,1017.7
2016-12-09T06:08:08.548Z,1017.73
2016-12-09T06:09:08.570Z,1017.76
2016-12-09T06:10:08.587Z,1017.75
2016-12-09T06:11:08.606Z,1017.7
2016-12-09T06:12:08.626Z,1017.67
2016-12-09T06:14:08.666Z,1017.62
2016-12-09T06:15:08.685Z,1017.57
2016-12-09T06:16:08.704Z,1017.58
2016-12-09T06:17:08.728Z,1017.55
2016-12-09T06:18:08.742Z,1017.57
2016-12-09T06:19:08.762Z,1017.58
2016-12-09T06:20:08.781Z,1017.6
2016-12-09T06:21:08.800Z,1017.64
2016-12-09T06:22:08.819Z,1017.65
2016-12-09T06:23:08.836Z,1017.64
2016-12-09T06:24:08.857Z,1017.65
2016-12-09T06:25:08.874Z,1017.68
2016-12-09T06:26:08.893Z,1017.67
2016-12-09T06:27:08.913Z,1017.67
2016-12-09T06:28:08.931Z,1017.71
2016-12-09T06:30:08.970Z,1017.63
2016-12-09T06:31:08.992Z,1017.63
2016-12-09T06:32:09.009Z,1017.6
2016-12-09T06:33:09.030Z,1017.59
2016-12-09T06:34:09.047Z,1017.62
2016-12-09T06:35:09.065Z,1017.61
2016-12-09T06:36:09.087Z,1017.59
2016-12-09T06:37:09.106Z,1017.57
2016-12-09T06:38:09.124Z,1017.57
2016-12-09T06:39:09.144Z,1017.6
2016-12-09T06:40:09.161Z,1017.64
2016-12-09T06:41:09.181Z,1017.67
2016-12-09T06:42:09.203Z,1017.67
2016-12-09T06:43:09.222Z,1017.66
2016-12-09T06:45:09.259Z,1017.7
2016-12-09T06:46:09.280Z,1017.73
2016-12-09T06:47:09.297Z,1017.73
2016-12-09T06:48:09.316Z,1017.69
2016-12-09T06:49:09.338Z,1017.71
2016-12-09T06:50:09.354Z,1017.73
2016-12-09T06:51:09.376Z,1017.74
2016-12-09T06:52:09.395Z,1017.75
2016-12-09T06:53:09.412Z,1017.77
2016-12-09T06:54:09.433Z,1017.79
2016-12-09T06:55:09.453Z,1017.77
2016-12-09T06:56:09.472Z,1017.74
2016-12-09T06:57:09.491Z,1017.78
2016-12-09T06:58:09.511Z,1017.8
2016-12-09T06:59:09.530Z,1017.81
2016-12-09T07:00:09.548Z,1017.8
2016-12-09T07:01:09.568Z,1017.78
2016-12-09T07:02:09.585Z,1017.8
2016-12-09T07:03:09.605Z,1017.82
2016-12-09T07:04:09.632Z,1017.85
2016-12-09T07:05:09.643Z,1017.87
2016-12-09T07:06:09.664Z,1017.87
2016-12-09T07:07:09.682Z,1017.93
2016-12-09T07:08:09.702Z,1018.01
2016-12-09T07:09:09.720Z,1017.99
2016-12-09T07:10:09.739Z,1018.06
2016-12-09T07:11:09.759Z,1018.05
2016-12-09T07:12:09.779Z,1018.11
2016-12-09T07:13:09.849Z,1018.17
2016-12-09T07:14:09.818Z,1018.25
2016-12-09T07:15:09.835Z,1018.24
2016-12-09T07:17:09.876Z,1018.25
2016-12-09T07:18:09.893Z,1018.23
2016-12-09T07:19:09.912Z,1018.25
2016-12-09T07:20:09.933Z,1018.23
2016-12-09T07:21:09.953Z,1018.31
2016-12-09T07:22:09.970Z,1018.24
2016-12-09T07:23:09.989Z,1018.29
2016-12-09T07:24:10.011Z,1018.2
2016-12-09T07:25:10.028Z,1018.29
2016-12-09T07:26:10.046Z,1018.29
2016-12-09T07:27:10.068Z,1018.29
2016-12-09T07:28:10.087Z,1018.33
2016-12-09T07:29:10.107Z,1018.33
2016-12-09T07:30:10.124Z,1018.35
2016-12-09T07:31:10.145Z,1018.33
2016-12-09T07:33:10.184Z,1018.37
2016-12-09T07:34:10.203Z,1018.43
2016-12-09T07:35:10.220Z,1018.43
2016-12-09T07:36:10.242Z,1018.41
2016-12-09T07:37:10.259Z,1018.39
2016-12-09T07:38:10.278Z,1018.36
2016-12-09T07:39:10.297Z,1018.4
2016-12-09T07:40:10.317Z,1018.35
2016-12-09T07:41:10.337Z,1018.3
2016-12-09T07:42:10.357Z,1018.3
2016-12-09T07:43:10.375Z,1018.28
2016-12-09T07:44:10.394Z,1018.22
2016-12-09T07:45:10.413Z,1018.24
2016-12-09T07:46:10.435Z,1018.26
2016-12-09T07:47:10.452Z,1018.19
2016-12-09T07:49:10.492Z,1018.3
2016-12-09T07:50:10.511Z,1018.21
2016-12-09T07:51:10.531Z,1018.17
2016-12-09T07:52:10.548Z,1018.19
2016-12-09T07:53:10.568Z,1018.15
2016-12-09T07:54:10.588Z,1018.18
2016-12-09T07:55:10.609Z,1018.13
2016-12-09T07:56:10.633Z,1018.12
2016-12-09T07:57:10.645Z,1018.06
2016-12-09T07:58:10.667Z,1018.01
2016-12-09T07:59:10.685Z,1018
2016-12-09T08:00:10.703Z,1017.97
2016-12-09T08:01:10.873Z,1018.02
2016-12-09T08:02:10.745Z,1017.99
2016-12-09T08:03:10.762Z,1018.02
2016-12-09T08:05:10.800Z,1018.07
2016-12-09T08:06:10.822Z,1018.08
2016-12-09T08:07:10.838Z,1018.14
2016-12-09T08:08:10.859Z,1018.11
2016-12-09T08:09:10.880Z,1018.15
2016-12-09T08:10:10.897Z,1018.2
2016-12-09T08:11:10.919Z,1018.2
2016-12-09T08:12:10.937Z,1018.12
2016-12-09T08:13:10.956Z,1018.15
2016-12-09T08:14:10.977Z,1018.17
2016-12-09T08:15:10.997Z,1018.14
2016-12-09T08:16:11.017Z,1018.16
2016-12-09T08:17:11.038Z,1018.11
2016-12-09T08:18:11.055Z,1018.11
2016-12-09T08:20:11.096Z,1018.14
2016-12-09T08:21:11.114Z,1018.13
2016-12-09T08:22:11.133Z,1018.18
2016-12-09T08:23:11.155Z,1018.18
2016-12-09T08:24:11.175Z,1018.19
2016-12-09T08:25:11.191Z,1018.21
2016-12-09T08:26:11.211Z,1018.17
2016-12-09T08:27:11.247Z,1018.2
2016-12-09T08:28:11.252Z,1018.19
2016-12-09T08:29:11.270Z,1018.21
2016-12-09T08:30:11.292Z,1018.21
2016-12-09T08:31:11.312Z,1018.18
2016-12-09T08:32:11.331Z,1018.18
2016-12-09T08:33:11.348Z,1018.19
2016-12-09T08:34:11.368Z,1018.2
2016-12-09T08:35:11.388Z,1018.2
2016-12-09T08:36:11.409Z,1018.24
2016-12-09T08:37:11.429Z,1018.26
2016-12-09T08:38:11.449Z,1018.29
2016-12-09T08:39:11.468Z,1018.29
2016-12-09T08:40:11.488Z,1018.27
2016-12-09T08:41:11.508Z,1018.29
2016-12-09T08:42:11.539Z,1018.3
2016-12-09T08:43:11.545Z,1018.28
2016-12-09T08:44:11.565Z,1018.27
2016-12-09T08:45:11.587Z,1018.27
2016-12-09T08:46:11.607Z,1018.3
2016-12-09T08:47:11.626Z,1018.33
2016-12-09T08:48:11.644Z,1018.37
2016-12-09T08:49:11.666Z,1018.34
2016-12-09T08:50:11.685Z,1018.34
2016-12-09T08:52:11.723Z,1018.41
2016-12-09T08:53:11.745Z,1018.47
2016-12-09T08:54:11.763Z,1018.38
2016-12-09T08:55:11.785Z,1018.49
2016-12-09T08:56:11.803Z,1018.45
2016-12-09T08:57:11.823Z,1018.54
2016-12-09T08:58:11.844Z,1018.54
2016-12-09T08:59:11.862Z,1018.55
2016-12-09T09:00:11.884Z,1018.57
2016-12-09T09:01:11.903Z,1018.6
2016-12-09T09:02:11.923Z,1018.66
2016-12-09T09:03:11.941Z,1018.67
2016-12-09T09:04:11.963Z,1018.65
2016-12-09T09:05:11.981Z,1018.67
2016-12-09T09:06:12.003Z,1018.69
2016-12-09T09:08:12.043Z,1018.69
2016-12-09T09:09:12.060Z,1018.69
2016-12-09T09:10:12.083Z,1018.66
2016-12-09T09:11:12.101Z,1018.7
2016-12-09T09:12:12.123Z,1018.68
2016-12-09T09:13:12.140Z,1018.64
2016-12-09T09:14:12.160Z,1018.63
2016-12-09T09:15:12.180Z,1018.59
2016-12-09T09:16:12.202Z,1018.57
2016-12-09T09:17:12.221Z,1018.54
2016-12-09T09:18:12.241Z,1018.47
2016-12-09T09:19:12.263Z,1018.54
2016-12-09T09:20:12.281Z,1018.53
2016-12-09T09:21:12.299Z,1018.61
2016-12-09T09:22:12.322Z,1018.63
2016-12-09T09:24:12.361Z,1018.65
2016-12-09T09:25:12.381Z,1018.64
2016-12-09T09:26:12.401Z,1018.7
2016-12-09T09:27:12.419Z,1018.79
2016-12-09T09:28:12.438Z,1018.81
2016-12-09T09:29:12.459Z,1018.8
2016-12-09T09:30:12.479Z,1018.71
2016-12-09T09:31:12.500Z,1018.77
2016-12-09T09:32:12.520Z,1018.78
2016-12-09T09:33:12.588Z,1018.8
2016-12-09T09:34:12.558Z,1018.86
2016-12-09T09:35:12.580Z,1018.79
2016-12-09T09:36:12.598Z,1018.77
2016-12-09T09:37:12.618Z,1018.83
2016-12-09T09:38:12.640Z,1018.88
2016-12-09T09:40:12.678Z,1018.9
2016-12-09T09:41:12.700Z,1018.92
2016-12-09T09:42:12.717Z,1018.87
2016-12-09T09:43:12.738Z,1018.86
2016-12-09T09:44:12.760Z,1018.84
2016-12-09T09:45:12.777Z,1018.82
2016-12-09T09:46:12.799Z,1018.75
2016-12-09T09:47:12.818Z,1018.74
2016-12-09T09:48:12.838Z,1018.74
2016-12-09T09:49:12.858Z,1018.81
2016-12-09T09:50:12.880Z,1018.79
2016-12-09T09:51:12.898Z,1018.77
2016-12-09T09:52:12.920Z,1018.75
2016-12-09T09:53:12.939Z,1018.75
2016-12-09T09:55:13.282Z,1018.77
2016-12-09T09:56:13.001Z,1018.74
2016-12-09T09:57:13.019Z,1018.67
2016-12-09T09:58:13.039Z,1018.65
2016-12-09T09:59:13.060Z,1018.66
2016-12-09T10:00:13.079Z,1018.66
2016-12-09T10:01:13.400Z,1018.66
2016-12-09T10:02:13.122Z,1018.63
2016-12-09T10:03:13.142Z,1018.62
2016-12-09T10:04:13.162Z,1018.59
2016-12-09T10:05:13.183Z,1018.64
2016-12-09T10:06:13.201Z,1018.57
2016-12-09T10:07:13.220Z,1018.63
2016-12-09T10:08:13.240Z,1018.56
2016-12-09T10:09:13.263Z,1018.56
2016-12-09T10:10:13.281Z,1018.56
2016-12-09T10:11:13.301Z,1018.49
2016-12-09T10:12:13.321Z,1018.55
2016-12-09T10:13:13.344Z,1018.61
2016-12-09T10:14:13.363Z,1018.51
2016-12-09T10:15:13.381Z,1018.66
2016-12-09T10:16:13.404Z,1018.56
2016-12-09T10:17:13.423Z,1018.58
2016-12-09T10:18:13.442Z,1018.7
2016-12-09T10:19:13.464Z,1018.58
2016-12-09T10:20:13.484Z,1018.65
2016-12-09T10:21:13.503Z,1018.62
2016-12-09T10:22:13.823Z,1018.6
2016-12-09T10:23:13.543Z,1018.58
2016-12-09T10:24:13.564Z,1018.59
2016-12-09T10:25:13.585Z,1018.51
2016-12-09T10:27:13.624Z,1018.59
2016-12-09T10:28:13.649Z,1018.58
2016-12-09T10:29:13.663Z,1018.53
2016-12-09T10:30:13.684Z,1018.57
2016-12-09T10:31:13.705Z,1018.6
2016-12-09T10:32:13.775Z,1018.58
2016-12-09T10:33:13.745Z,1018.63
2016-12-09T10:34:13.768Z,1018.57
2016-12-09T10:35:13.785Z,1018.62
2016-12-09T10:36:13.805Z,1018.61
2016-12-09T10:37:13.825Z,1018.61
2016-12-09T10:38:13.896Z,1018.55
2016-12-09T10:39:13.868Z,1018.59
2016-12-09T10:40:13.888Z,1018.58
2016-12-09T10:41:13.906Z,1018.58
2016-12-09T10:43:13.948Z,1018.56
2016-12-09T10:44:13.967Z,1018.49
2016-12-09T10:45:13.989Z,1018.57
2016-12-09T10:46:14.008Z,1018.55
2016-12-09T10:47:14.030Z,1018.51
2016-12-09T10:48:14.048Z,1018.52
2016-12-09T10:49:14.068Z,1018.58
2016-12-09T10:50:14.089Z,1018.58
2016-12-09T10:51:14.109Z,1018.62
2016-12-09T10:52:14.129Z,1018.59
2016-12-09T10:53:14.151Z,1018.53
2016-12-09T10:54:14.172Z,1018.55
2016-12-09T10:55:14.191Z,1018.57
2016-12-09T10:56:14.210Z,1018.56
2016-12-09T10:57:14.231Z,1018.62
2016-12-09T10:59:14.271Z,1018.61
2016-12-09T11:00:14.293Z,1018.63
2016-12-09T11:01:14.311Z,1018.64
2016-12-09T11:02:14.333Z,1018.7
2016-12-09T11:03:14.352Z,1018.82
2016-12-09T11:04:14.375Z,1018.79
2016-12-09T11:05:14.393Z,1018.86
2016-12-09T11:06:14.413Z,1018.91
2016-12-09T11:07:14.436Z,1018.91
2016-12-09T11:08:14.454Z,1019.01
2016-12-09T11:09:14.473Z,1019
2016-12-09T11:10:14.495Z,1019.02
2016-12-09T11:11:14.514Z,1019.07
2016-12-09T11:12:14.535Z,1019.07
2016-12-09T11:13:14.557Z,1019.11
2016-12-09T11:15:14.597Z,1019.1
2016-12-09T11:16:14.619Z,1019.09
2016-12-09T11:17:14.638Z,1019.05
2016-12-09T11:18:14.660Z,1019.08
2016-12-09T11:19:14.679Z,1019
2016-12-09T11:20:14.698Z,1019.01
2016-12-09T11:21:14.717Z,1018.98
2016-12-09T11:22:14.739Z,1018.94
2016-12-09T11:23:14.758Z,1018.98
2016-12-09T11:24:14.827Z,1018.95
2016-12-09T11:25:14.800Z,1018.98
2016-12-09T11:26:14.819Z,1018.95
2016-12-09T11:27:14.841Z,1018.93
2016-12-09T11:28:14.862Z,1018.95
2016-12-09T11:30:14.900Z,1018.97
2016-12-09T11:31:14.920Z,1018.99
2016-12-09T11:32:14.940Z,1018.97
2016-12-09T11:33:14.963Z,1018.98
2016-12-09T11:34:14.984Z,1018.98
2016-12-09T11:35:15.004Z,1019
2016-12-09T11:36:15.024Z,1019.02
2016-12-09T11:37:15.043Z,1019.03
2016-12-09T11:38:15.062Z,1019.1
2016-12-09T11:39:15.085Z,1019.08
2016-12-09T11:40:15.106Z,1019.07
2016-12-09T11:41:15.124Z,1019.11
2016-12-09T11:42:15.144Z,1019.13
2016-12-09T11:43:15.165Z,1019.17
2016-12-09T11:44:15.185Z,1019.14
2016-12-09T11:45:15.206Z,1019.09
2016-12-09T11:46:15.228Z,1019.18
2016-12-09T11:47:15.247Z,1019.17
2016-12-09T11:48:15.269Z,1019.18
2016-12-09T11:49:15.287Z,1019.22
2016-12-09T11:50:15.310Z,1019.22
2016-12-09T11:51:15.328Z,1019.21
2016-12-09T11:52:15.351Z,1019.2
2016-12-09T11:53:15.371Z,1019.19
2016-12-09T11:54:15.439Z,1019.24
2016-12-09T11:55:15.412Z,1019.17
2016-12-09T11:56:15.433Z,1019.26
2016-12-09T11:57:15.453Z,1019.16
2016-12-09T11:58:15.473Z,1019.22
2016-12-09T11:59:15.494Z,1019.17
2016-12-09T12:00:15.511Z,1019.22
2016-12-09T12:02:15.553Z,1019.17
2016-12-09T12:03:15.574Z,1019.14
2016-12-09T12:04:15.595Z,1019.16
2016-12-09T12:05:15.616Z,1019.13
2016-12-09T12:06:15.634Z,1019.18
2016-12-09T12:07:15.656Z,1019.07
2016-12-09T12:08:15.678Z,1019.11
2016-12-09T12:09:15.698Z,1019.13
2016-12-09T12:10:15.717Z,1019.12
2016-12-09T12:11:15.739Z,1019.13
2016-12-09T12:12:15.760Z,1019.07
2016-12-09T12:13:15.778Z,1019.05
2016-12-09T12:14:15.801Z,1019.16
2016-12-09T12:15:15.820Z,1019.08
2016-12-09T12:16:15.840Z,1019.18
2016-12-09T12:18:15.881Z,1019.07
2016-12-09T12:19:15.900Z,1019.14
2016-12-09T12:20:15.923Z,1019.14
2016-12-09T12:21:15.942Z,1019.13
2016-12-09T12:22:15.961Z,1019.16
2016-12-09T12:23:15.984Z,1019.18
2016-12-09T12:24:16.005Z,1019.21
2016-12-09T12:25:16.026Z,1019.19
2016-12-09T12:26:16.045Z,1019.22
2016-12-09T12:27:16.066Z,1019.26
2016-12-09T12:28:16.085Z,1019.18
2016-12-09T12:29:16.105Z,1019.17
2016-12-09T12:30:16.126Z,1019.05
2016-12-09T12:31:16.145Z,1019.15
2016-12-09T12:32:16.166Z,1019.05
2016-12-09T12:34:16.207Z,1019.1
2016-12-09T12:35:16.228Z,1019.01
2016-12-09T12:36:16.249Z,1019.07
2016-12-09T12:37:16.269Z,1019.04
2016-12-09T12:38:16.287Z,1019.07
2016-12-09T12:39:16.308Z,1019.05
2016-12-09T12:40:16.330Z,1019.07
2016-12-09T12:41:16.351Z,1018.98
2016-12-09T12:42:16.371Z,1019.06
2016-12-09T12:43:16.390Z,1019.01
2016-12-09T12:44:16.410Z,1019.02
2016-12-09T12:45:16.430Z,1018.97
2016-12-09T12:46:16.451Z,1019.01
2016-12-09T12:47:16.474Z,1019
2016-12-09T12:48:16.494Z,1019